createdAt,value
2018-05-15T00:00:07.452Z,38.83
2018-05-15T00:02:36.436Z,36.25
2018-05-15T00:05:02.408Z,40.33
2018-05-15T00:07:31.749Z,41.90
2018-05-15T00:09:57.651Z,48.50
2018-05-15T00:12:25.922Z,46.97
2018-05-15T00:14:51.887Z,47.58
2018-05-15T00:17:17.766Z,49.70
2018-05-15T00:19:43.656Z,48.17
2018-05-15T00:22:09.554Z,49.22
2018-05-15T00:24:37.307Z,56.80
2018-05-15T00:27:03.228Z,56.88
2018-05-15T00:29:32.404Z,58.22
2018-05-15T00:31:58.322Z,58.65
2018-05-15T00:34:27.713Z,61.72
2018-05-15T00:36:53.593Z,59.67
2018-05-15T00:39:23.175Z,59.55
2018-05-15T00:41:49.044Z,56.80
2018-05-15T00:44:16.479Z,56.33
2018-05-15T00:46:42.371Z,52.45
2018-05-15T00:49:11.916Z,54.20
2018-05-15T00:51:37.828Z,55.65
2018-05-15T00:54:03.741Z,60.77
2018-05-15T00:56:29.616Z,62.95
2018-05-15T00:58:55.559Z,57.58
2018-05-15T01:01:24.500Z,64.07
2018-05-15T01:03:50.411Z,54.58
2018-05-15T01:06:18.214Z,63.00
2018-05-15T01:08:44.098Z,51.40
2018-05-15T01:11:13.132Z,62.65
2018-05-15T01:13:39.003Z,54.63
2018-05-15T01:16:08.753Z,65.55
2018-05-15T01:18:34.666Z,51.75
2018-05-15T01:21:01.703Z,51.30
2018-05-15T01:23:27.661Z,47.53
2018-05-15T01:25:57.307Z,50.83
2018-05-15T01:28:23.219Z,47.45
2018-05-15T01:30:49.148Z,49.30
2018-05-15T01:33:16.215Z,46.05
2018-05-15T01:35:42.090Z,49.00
2018-05-15T01:38:07.986Z,74.37
2018-05-15T01:40:33.885Z,52.20
2018-05-15T01:43:03.166Z,51.33
2018-05-15T01:45:29.090Z,52.13
2018-05-15T01:47:58.245Z,51.90
2018-05-15T01:50:24.178Z,51.17
2018-05-15T01:52:53.253Z,63.40
2018-05-15T01:55:19.158Z,65.25
2018-05-15T01:57:48.644Z,72.55
2018-05-15T02:00:14.535Z,51.20
2018-05-15T02:02:42.308Z,48.67
2018-05-15T02:05:08.168Z,49.33
2018-05-15T02:07:34.039Z,44.35
2018-05-15T02:09:59.964Z,46.13
2018-05-15T02:12:25.894Z,41.30
2018-05-15T02:14:54.068Z,41.15
2018-05-15T02:17:19.967Z,39.58
2018-05-15T02:33:16.723Z,39.47
2018-05-15T02:35:43.582Z,36.05
2018-05-15T02:38:09.522Z,35.97
2018-05-15T02:40:39.005Z,37.20
2018-05-15T02:43:04.916Z,36.55
2018-05-15T02:45:34.361Z,36.50
2018-05-15T02:48:00.249Z,34.75
2018-05-15T02:50:27.468Z,34.30
2018-05-15T02:52:53.401Z,32.65
2018-05-15T02:55:22.560Z,32.85
2018-05-15T02:57:48.457Z,37.22
2018-05-15T03:00:17.253Z,35.58
2018-05-15T03:02:43.122Z,35.78
2018-05-15T03:05:09.081Z,33.75
2018-05-15T03:07:34.949Z,34.88
2018-05-15T03:10:00.891Z,33.67
2018-05-15T03:12:28.614Z,33.28
2018-05-15T03:14:54.510Z,32.00
2018-05-15T03:17:24.343Z,32.47
2018-05-15T03:19:50.242Z,32.28
2018-05-15T03:22:19.885Z,31.95
2018-05-15T03:24:45.758Z,30.12
2018-05-15T03:38:14.015Z,30.75
2018-05-15T03:40:39.936Z,30.77
2018-05-15T03:43:09.834Z,32.22
2018-05-15T03:45:35.723Z,31.90
2018-05-15T03:48:02.983Z,35.72
2018-05-15T03:50:28.854Z,33.72
2018-05-15T03:52:58.379Z,34.80
2018-05-15T03:55:24.258Z,33.50
2018-05-15T03:57:50.172Z,34.30
2018-05-15T04:00:28.447Z,36.90
2018-05-15T04:03:06.727Z,34.33
2018-05-15T04:05:44.894Z,32.65
2018-05-15T04:08:11.596Z,36.53
2018-05-15T04:10:37.471Z,36.97
2018-05-15T04:13:03.410Z,36.25
2018-05-15T04:15:29.324Z,34.17
2018-05-15T04:17:55.278Z,36.63
2018-05-15T04:20:21.221Z,35.90
2018-05-15T04:22:47.129Z,32.38
2018-05-15T04:25:13.006Z,32.63
2018-05-15T04:27:38.919Z,33.80
2018-05-15T04:30:04.795Z,33.85
2018-05-15T04:32:30.696Z,32.33
2018-05-15T04:34:56.620Z,32.17
2018-05-15T04:37:22.540Z,35.53
2018-05-15T04:39:48.465Z,35.30
2018-05-15T04:42:14.381Z,38.25
2018-05-15T04:44:40.408Z,37.40
2018-05-15T04:47:06.327Z,36.75
2018-05-15T04:49:32.215Z,35.72
2018-05-15T04:51:58.140Z,35.10
2018-05-15T04:54:24.051Z,35.90
2018-05-15T04:56:49.955Z,38.25
2018-05-15T04:59:15.859Z,38.40
2018-05-15T05:01:41.763Z,36.53
2018-05-15T05:04:07.667Z,36.22
2018-05-15T05:06:33.653Z,37.97
2018-05-15T05:08:59.559Z,39.92
2018-05-15T05:11:25.471Z,35.72
2018-05-15T05:13:51.438Z,39.97
2018-05-15T05:16:17.366Z,38.97
2018-05-15T05:18:43.307Z,40.95
2018-05-15T05:21:09.236Z,41.75
2018-05-15T05:23:35.236Z,42.93
2018-05-15T05:26:01.188Z,46.70
2018-05-15T05:28:30.599Z,47.40
2018-05-15T05:30:56.499Z,47.65
2018-05-15T05:33:24.404Z,45.90
2018-05-15T05:35:50.286Z,42.70
2018-05-15T05:38:19.648Z,42.62
2018-05-15T05:40:45.619Z,44.37
2018-05-15T05:43:14.766Z,41.42
2018-05-15T05:45:40.710Z,40.90
2018-05-15T05:48:06.585Z,38.13
2018-05-15T05:50:32.471Z,36.65
2018-05-15T05:52:58.363Z,35.88
2018-05-15T05:55:25.102Z,37.80
2018-05-15T05:57:51.014Z,34.30
2018-05-15T06:00:19.855Z,33.25
2018-05-15T06:02:45.784Z,34.30
2018-05-15T06:05:14.523Z,33.63
2018-05-15T06:07:40.391Z,31.48
2018-05-15T06:10:09.583Z,31.90
2018-05-15T06:12:35.774Z,32.17
2018-05-15T06:15:03.981Z,30.83
2018-05-15T06:17:29.891Z,31.42
2018-05-15T06:19:58.724Z,30.00
2018-05-15T06:22:24.599Z,30.20
2018-05-15T06:24:50.542Z,29.20
2018-05-15T06:27:16.477Z,29.30
2018-05-15T06:29:42.390Z,28.48
2018-05-15T06:32:12.213Z,29.92
2018-05-15T06:34:38.139Z,30.60
2018-05-15T06:37:05.253Z,28.50
2018-05-15T06:39:31.203Z,26.20
2018-05-15T06:42:00.104Z,28.33
2018-05-15T06:44:25.987Z,27.75
2018-05-15T06:46:55.126Z,26.25
2018-05-15T06:49:20.999Z,27.92
2018-05-15T06:51:50.408Z,27.20
2018-05-15T06:54:16.315Z,26.75
2018-05-15T06:56:44.205Z,25.45
2018-05-15T06:59:10.083Z,24.80
2018-05-15T07:01:35.982Z,25.60
2018-05-15T07:04:01.928Z,25.50
2018-05-15T07:06:27.829Z,24.77
2018-05-15T07:08:56.987Z,25.50
2018-05-15T07:11:22.898Z,23.67
2018-05-15T07:13:52.449Z,23.48
2018-05-15T07:16:20.860Z,23.27
2018-05-15T07:18:46.927Z,23.38
2018-05-15T07:21:12.874Z,23.35
2018-05-15T07:23:41.863Z,22.60
2018-05-15T07:26:07.785Z,20.80
2018-05-15T07:28:34.729Z,22.75
2018-05-15T07:31:00.662Z,21.37
2018-05-15T07:33:29.573Z,20.92
2018-05-15T07:35:55.469Z,22.35
2018-05-15T07:38:21.407Z,21.55
2018-05-15T07:40:47.288Z,20.97
2018-05-15T07:43:13.206Z,20.70
2018-05-15T07:45:41.580Z,21.30
2018-05-15T07:48:07.466Z,21.03
2018-05-15T07:50:36.666Z,20.73
2018-05-15T07:53:02.582Z,19.02
2018-05-15T07:55:31.846Z,19.87
2018-05-15T07:57:57.735Z,20.90
2018-05-15T08:12:04.195Z,22.52
2018-05-15T08:14:30.098Z,19.70
2018-05-15T08:16:56.031Z,19.73
2018-05-15T08:19:21.911Z,19.27
2018-05-15T08:21:47.815Z,19.23
2018-05-15T08:24:13.706Z,17.05
2018-05-15T08:26:39.615Z,17.65
2018-05-15T08:29:05.530Z,16.65
2018-05-15T08:31:31.429Z,17.85
2018-05-15T08:33:57.330Z,16.10
2018-05-15T08:36:23.222Z,16.20
2018-05-15T08:38:49.203Z,16.95
2018-05-15T08:41:15.076Z,15.88
2018-05-15T08:43:40.941Z,16.20
2018-05-15T08:46:06.902Z,16.50
2018-05-15T08:48:32.885Z,17.20
2018-05-15T08:50:58.776Z,17.08
2018-05-15T08:53:24.696Z,14.75
2018-05-15T08:55:50.574Z,13.13
2018-05-15T09:10:25.623Z,14.50
2018-05-15T09:12:51.479Z,14.67
2018-05-15T09:15:17.391Z,13.60
2018-05-15T09:17:43.314Z,14.00
2018-05-15T09:20:09.234Z,14.70
2018-05-15T09:22:35.124Z,13.07
2018-05-15T09:25:01.071Z,14.57
2018-05-15T09:27:26.995Z,14.63
2018-05-15T09:29:52.930Z,14.00
2018-05-15T09:32:18.844Z,13.05
2018-05-15T09:34:46.215Z,12.00
2018-05-15T09:37:12.200Z,12.25
2018-05-15T09:39:41.301Z,13.05
2018-05-15T09:42:07.213Z,12.70
2018-05-15T09:44:36.555Z,11.17
2018-05-15T09:47:02.497Z,12.77
2018-05-15T09:49:28.417Z,12.82
2018-05-15T09:51:54.340Z,12.23
2018-05-15T09:54:20.275Z,12.57
2018-05-15T09:56:47.744Z,12.50
2018-05-15T09:59:13.663Z,12.85
2018-05-15T10:01:42.628Z,11.90
2018-05-15T10:04:08.506Z,10.88
2018-05-15T10:06:37.797Z,12.40
2018-05-15T10:09:04.658Z,12.37
2018-05-15T10:11:31.375Z,12.60
2018-05-15T10:13:57.270Z,11.60
2018-05-15T10:16:25.962Z,13.17
2018-05-15T10:18:51.870Z,11.75
2018-05-15T10:21:20.579Z,11.60
2018-05-15T10:23:46.463Z,11.65
2018-05-15T10:26:12.378Z,11.20
2018-05-15T10:28:38.311Z,11.73
2018-05-15T10:31:04.215Z,12.13
2018-05-15T10:33:34.097Z,12.77
2018-05-15T10:36:00.012Z,12.70
2018-05-15T10:38:27.323Z,12.07
2018-05-15T10:40:53.299Z,12.55
2018-05-15T10:43:23.159Z,12.07
2018-05-15T10:45:49.055Z,12.63
2018-05-15T10:48:18.465Z,10.95
2018-05-15T10:50:44.350Z,11.18
2018-05-15T10:53:11.755Z,11.55
2018-05-15T10:55:37.690Z,9.70
2018-05-15T10:58:06.864Z,10.52
2018-05-15T11:00:32.776Z,10.35
2018-05-15T11:02:58.643Z,10.67
2018-05-15T11:05:24.558Z,10.67
2018-05-15T11:07:50.481Z,11.70
2018-05-15T11:10:18.323Z,10.80
2018-05-15T11:12:44.296Z,10.40
2018-05-15T11:15:15.169Z,10.20
2018-05-15T11:17:41.062Z,9.38
2018-05-15T11:20:20.339Z,9.50
2018-05-15T11:22:58.815Z,8.88
2018-05-15T11:25:24.703Z,9.55
2018-05-15T11:27:50.641Z,8.80
2018-05-15T11:30:16.548Z,8.25
2018-05-15T11:32:42.491Z,7.77
2018-05-15T11:35:08.438Z,7.95
2018-05-15T11:37:34.337Z,8.57
2018-05-15T11:40:00.252Z,9.90
2018-05-15T11:42:26.148Z,10.45
2018-05-15T11:44:52.087Z,10.38
2018-05-15T11:47:18.007Z,10.00
2018-05-15T11:49:44.621Z,9.30
2018-05-15T11:52:10.679Z,9.20
2018-05-15T11:54:35.744Z,8.60
2018-05-15T11:57:01.643Z,8.30
2018-05-15T11:59:27.551Z,9.03
2018-05-15T12:01:53.471Z,8.00
2018-05-15T12:04:19.334Z,8.90
2018-05-15T12:06:45.297Z,9.40
2018-05-15T12:09:11.232Z,9.10
2018-05-15T12:11:37.201Z,8.48
2018-05-15T12:14:03.130Z,10.13
2018-05-15T12:16:29.111Z,10.13
2018-05-15T12:18:54.999Z,8.98
2018-05-15T12:21:20.939Z,6.70
2018-05-15T12:23:48.441Z,7.80
2018-05-15T12:26:14.370Z,6.32
2018-05-15T12:28:47.107Z,8.35
2018-05-15T12:31:13.011Z,8.80
2018-05-15T12:33:38.922Z,8.50
2018-05-15T12:36:04.933Z,10.00
2018-05-15T12:38:32.714Z,10.05
2018-05-15T12:40:58.653Z,10.60
2018-05-15T12:43:27.975Z,10.70
2018-05-15T12:45:53.837Z,10.35
2018-05-15T12:48:23.154Z,10.63
2018-05-15T12:50:49.004Z,16.37
2018-05-15T12:53:14.954Z,9.07
2018-05-15T12:55:40.880Z,9.27
2018-05-15T12:58:06.797Z,8.35
2018-05-15T13:00:33.826Z,7.93
2018-05-15T13:02:59.737Z,8.30
2018-05-15T13:05:30.225Z,8.63
2018-05-15T13:07:56.205Z,7.72
2018-05-15T13:10:23.412Z,7.67
2018-05-15T13:12:49.340Z,6.87
2018-05-15T13:15:18.884Z,5.65
2018-05-15T13:17:44.795Z,5.25
2018-05-15T13:20:14.095Z,4.65
2018-05-15T13:33:39.047Z,4.40
2018-05-15T13:36:04.908Z,4.72
2018-05-15T13:38:30.808Z,8.80
2018-05-15T13:40:56.723Z,5.60
2018-05-15T13:43:22.616Z,4.47
2018-05-15T13:45:48.514Z,4.78
2018-05-15T13:48:14.423Z,4.57
2018-05-15T13:50:40.366Z,4.50
2018-05-15T13:53:06.292Z,4.30
2018-05-15T13:55:32.199Z,4.32
2018-05-15T13:57:58.123Z,3.60
2018-05-15T14:00:24.062Z,3.60
2018-05-15T14:02:49.943Z,3.50
2018-05-15T14:05:15.877Z,3.67
2018-05-15T14:07:41.779Z,2.73
2018-05-15T14:10:07.733Z,3.70
2018-05-15T14:12:33.711Z,3.70
2018-05-15T14:14:59.671Z,3.25
2018-05-15T14:17:25.590Z,2.87
2018-05-15T14:19:51.509Z,2.90
2018-05-15T14:22:17.392Z,3.05
2018-05-15T14:24:46.880Z,2.90
2018-05-15T14:27:12.895Z,2.72
2018-05-15T14:29:39.540Z,3.17
2018-05-15T14:32:05.467Z,3.10
2018-05-15T14:34:34.828Z,3.12
2018-05-15T14:37:00.770Z,3.05
2018-05-15T14:39:30.588Z,3.50
2018-05-15T14:42:08.831Z,3.40
2018-05-15T14:44:34.780Z,3.10
2018-05-15T14:47:00.688Z,3.00
2018-05-15T14:49:26.619Z,2.70
2018-05-15T14:51:52.487Z,2.80
2018-05-15T14:54:18.408Z,3.00
2018-05-15T14:56:44.336Z,2.95
2018-05-15T14:59:10.281Z,2.80
2018-05-15T15:01:36.326Z,3.33
2018-05-15T15:04:04.700Z,3.00
2018-05-15T15:06:30.682Z,2.87
2018-05-15T15:08:56.566Z,3.30
2018-05-15T15:11:22.492Z,2.85
2018-05-15T15:13:48.432Z,3.30
2018-05-15T15:16:14.389Z,3.08
2018-05-15T15:18:40.286Z,2.90
2018-05-15T15:21:09.741Z,3.08
2018-05-15T15:23:35.709Z,2.90
2018-05-15T15:26:05.290Z,3.62
2018-05-15T15:28:31.246Z,3.00
2018-05-15T15:30:57.187Z,3.20
2018-05-15T15:33:23.118Z,3.25
2018-05-15T15:35:49.021Z,3.17
2018-05-15T15:38:15.949Z,3.80
2018-05-15T15:40:41.876Z,3.30
2018-05-15T15:43:11.484Z,3.30
2018-05-15T15:45:37.402Z,3.20
2018-05-15T15:48:04.849Z,3.30
2018-05-15T15:50:30.744Z,3.40
2018-05-15T15:53:02.470Z,3.37
2018-05-15T15:55:28.520Z,3.00
2018-05-15T15:57:55.694Z,3.20
2018-05-15T16:00:21.620Z,3.40
2018-05-15T16:02:49.466Z,3.90
2018-05-15T16:05:15.367Z,3.22
2018-05-15T16:07:41.276Z,3.17
2018-05-15T16:10:07.282Z,3.40
2018-05-15T16:12:33.126Z,3.10
2018-05-15T16:15:03.034Z,3.37
2018-05-15T16:17:28.987Z,3.50
2018-05-15T16:19:55.606Z,3.37
2018-05-15T16:22:21.675Z,3.67
2018-05-15T16:24:54.767Z,3.80
2018-05-15T16:27:21.664Z,36.53
2018-05-15T16:29:47.801Z,6.43
2018-05-15T16:32:14.135Z,4.28
2018-05-15T16:34:40.165Z,4.10
2018-05-15T16:37:06.860Z,3.70
2018-05-15T16:39:36.024Z,3.60
2018-05-15T16:42:03.325Z,3.58
2018-05-15T16:44:29.284Z,3.70
2018-05-15T16:46:55.181Z,3.95
2018-05-15T16:49:21.149Z,3.97
2018-05-15T16:51:47.059Z,3.95
2018-05-15T16:54:12.960Z,3.62
2018-05-15T16:56:43.160Z,3.60
2018-05-15T16:59:09.097Z,3.70
2018-05-15T17:01:35.926Z,4.00
2018-05-15T17:04:01.885Z,3.70
2018-05-15T17:06:31.457Z,3.90
2018-05-15T17:08:57.406Z,4.20
2018-05-15T17:11:25.058Z,3.75
2018-05-15T17:13:51.016Z,3.55
2018-05-15T17:16:20.312Z,3.87
2018-05-15T17:18:46.225Z,3.97
2018-05-15T17:21:12.159Z,3.70
2018-05-15T17:23:38.139Z,3.80
2018-05-15T17:26:04.056Z,4.00
2018-05-15T17:28:31.944Z,4.20
2018-05-15T17:30:58.084Z,4.07
2018-05-15T17:33:27.547Z,4.40
2018-05-15T17:35:53.457Z,4.22
2018-05-15T17:38:22.420Z,4.90
2018-05-15T17:52:03.752Z,4.43
2018-05-15T17:54:29.668Z,5.50
2018-05-15T17:56:58.718Z,4.78
2018-05-15T17:59:24.605Z,5.00
2018-05-15T18:01:53.800Z,4.50
2018-05-15T18:04:19.731Z,4.32
2018-05-15T18:06:49.569Z,4.00
2018-05-15T18:09:15.449Z,3.95
2018-05-15T18:11:42.641Z,4.50
2018-05-15T18:14:08.582Z,4.50
2018-05-15T18:16:37.122Z,4.70
2018-05-15T18:19:02.999Z,3.05
2018-05-15T18:21:31.809Z,3.45
2018-05-15T18:23:57.710Z,3.10
2018-05-15T18:26:26.773Z,3.80
2018-05-15T18:28:52.650Z,4.30
2018-05-15T18:31:21.819Z,3.65
2018-05-15T18:33:47.766Z,4.00
2018-05-15T18:36:17.355Z,3.78
2018-05-15T18:38:43.288Z,3.10
2018-05-15T18:41:12.239Z,3.70
2018-05-15T18:43:38.139Z,4.00
2018-05-15T18:46:07.483Z,4.00
2018-05-15T18:48:33.429Z,3.87
2018-05-15T18:51:00.621Z,3.42
2018-05-15T18:53:26.515Z,3.70
2018-05-15T18:55:56.485Z,3.97
2018-05-15T18:58:22.394Z,3.55
2018-05-15T19:00:48.298Z,3.40
2018-05-15T19:03:14.191Z,3.90
2018-05-15T19:05:40.083Z,3.70
2018-05-15T19:08:07.155Z,4.10
2018-05-15T19:10:33.047Z,3.53
2018-05-15T19:13:01.545Z,3.58
2018-05-15T19:15:27.464Z,3.87
2018-05-15T19:17:56.765Z,4.60
2018-05-15T19:20:22.702Z,4.15
2018-05-15T19:22:51.888Z,4.50
2018-05-15T19:25:17.816Z,3.80
2018-05-15T19:27:46.276Z,4.27
2018-05-15T19:30:12.220Z,4.40
2018-05-15T19:32:41.367Z,4.80
2018-05-15T19:35:07.293Z,5.28
2018-05-15T19:37:33.262Z,5.10
2018-05-15T19:39:59.158Z,5.00
2018-05-15T19:42:25.061Z,4.85
2018-05-15T19:44:52.845Z,4.93
2018-05-15T19:47:18.818Z,5.40
2018-05-15T19:49:48.634Z,5.40
2018-05-15T19:52:14.571Z,5.65
2018-05-15T19:54:42.438Z,5.40
2018-05-15T19:57:08.333Z,5.10
2018-05-15T19:59:37.495Z,5.00
2018-05-15T20:02:03.424Z,4.93
2018-05-15T20:04:32.323Z,55.28
2018-05-15T20:06:58.236Z,8.43
2018-05-15T20:09:27.593Z,14.90
2018-05-15T20:11:53.457Z,5.62
2018-05-15T20:14:19.386Z,5.55
2018-05-15T20:16:45.310Z,6.18
2018-05-15T20:19:11.224Z,5.25
2018-05-15T20:21:38.084Z,6.00
2018-05-15T20:24:03.986Z,7.28
2018-05-15T20:26:33.340Z,6.60
2018-05-15T20:28:59.308Z,6.90
2018-05-15T20:31:27.445Z,6.78
2018-05-15T20:33:53.367Z,7.35
2018-05-15T20:36:22.514Z,6.78
2018-05-15T20:38:48.427Z,6.72
2018-05-15T20:41:17.546Z,7.32
2018-05-15T20:43:43.446Z,6.68
2018-05-15T20:46:11.041Z,6.37
2018-05-15T20:48:36.953Z,7.07
2018-05-15T20:51:02.900Z,7.03
2018-05-15T20:53:28.781Z,6.90
2018-05-15T20:55:55.027Z,7.80
2018-05-15T20:58:22.968Z,6.60
2018-05-15T21:00:48.784Z,6.78
2018-05-15T21:03:17.579Z,6.80
2018-05-15T21:05:43.473Z,7.50
2018-05-15T21:08:12.196Z,7.78
2018-05-15T21:10:38.109Z,7.18
2018-05-15T21:13:06.989Z,7.80
2018-05-15T21:15:34.416Z,7.70
2018-05-15T21:18:02.360Z,6.90
2018-05-15T21:20:28.282Z,6.90
2018-05-15T21:22:58.036Z,7.43
2018-05-15T21:25:24.250Z,7.27
2018-05-15T21:27:50.176Z,7.12
2018-05-15T21:30:16.061Z,7.00
2018-05-15T21:32:41.998Z,6.60
2018-05-15T21:35:08.299Z,7.55
2018-05-15T21:37:34.203Z,6.78
2018-05-15T21:40:03.507Z,7.00
2018-05-15T21:42:29.394Z,7.60
2018-05-15T21:44:58.874Z,7.50
2018-05-15T21:47:24.842Z,7.10
2018-05-15T21:49:53.858Z,7.85
2018-05-15T21:52:19.729Z,8.23
2018-05-15T21:54:48.827Z,8.80
2018-05-15T21:57:14.772Z,7.70
2018-05-15T21:59:41.819Z,8.27
2018-05-15T22:02:07.871Z,8.27
2018-05-15T22:04:33.769Z,8.40
2018-05-15T22:06:59.827Z,8.52
2018-05-15T22:09:25.735Z,7.93
2018-05-15T22:12:05.153Z,7.82
2018-05-15T22:14:43.737Z,8.30
2018-05-15T22:17:23.853Z,8.40
2018-05-15T22:20:02.143Z,8.50
2018-05-15T22:22:27.912Z,8.50
2018-05-15T22:24:53.742Z,8.33
2018-05-15T22:27:19.634Z,9.00
2018-05-15T22:29:45.514Z,8.65
2018-05-15T22:32:11.432Z,8.25
2018-05-15T22:34:37.334Z,9.40
2018-05-15T22:37:03.233Z,8.48
2018-05-15T22:39:29.203Z,8.60
2018-05-15T22:41:55.067Z,9.07
2018-05-15T22:44:21.006Z,8.82
2018-05-15T22:46:46.890Z,9.40
2018-05-15T22:49:12.839Z,9.20
2018-05-15T22:51:38.742Z,9.40
2018-05-15T22:54:04.617Z,8.60
2018-05-15T22:56:30.523Z,9.20
2018-05-15T22:58:56.416Z,8.50
2018-05-15T23:01:22.367Z,8.60
2018-05-15T23:03:48.268Z,8.87
2018-05-15T23:06:14.162Z,8.80
2018-05-15T23:08:40.079Z,8.98
2018-05-15T23:11:05.991Z,9.03
2018-05-15T23:16:24.505Z,8.75
2018-05-15T23:18:50.394Z,9.02
2018-05-15T23:21:16.311Z,10.40
2018-05-15T23:23:42.227Z,10.27
2018-05-15T23:26:08.198Z,9.82
2018-05-15T23:28:34.108Z,9.63
2018-05-15T23:31:00.092Z,10.40
2018-05-15T23:33:25.987Z,11.40
2018-05-15T23:35:51.907Z,10.37
2018-05-15T23:38:17.834Z,10.95
2018-05-15T23:40:43.743Z,10.23
2018-05-15T23:43:10.955Z,10.13
2018-05-15T23:45:36.961Z,10.40
2018-05-15T23:48:02.856Z,10.20
2018-05-15T23:50:28.835Z,10.38
2018-05-15T23:52:54.812Z,10.33
2018-05-15T23:55:20.731Z,10.80
2018-05-15T23:57:46.632Z,9.52
